Pikesville, Maryland
Current Conditions -  °F | °C
As of 3:54 AM on Saturday 29 Nov 2014 (Local Time) from KBWI Reporting Station
Overcast Overcast  
Wind Chill: 28°   Ceiling: 12000
Heat Index: 28°   Visibility: 10mi
Dew Point: 23°   Wind: 0mph
Humidity: 81%   Direction: NA
Pressure: 30.31"   Gusts: NA
Location:  39.38°N, 76.72°W
Report Text: KBWI 290854Z 00000KT 10SM SCT090 BKN120 OVC200 M02/M05 A3031 RMK AO2 SLP266 T10221050 50005
Loading
Personal Weather Stations






























Interactive Weather Map New forecast layout! Learn more

10-Day Weather Forecast

Advertisements
Track Severe Weather on mobile